sensor_id;sensor_type;location;lat;lon;timestamp;temperature;humidity
75113;DHT22;63692;47.338;8.520;2023-08-17T05:19:03;20.70;99.90
75113;DHT22;63692;47.338;8.520;2023-08-17T05:21:29;20.70;99.90
75113;DHT22;63692;47.338;8.520;2023-08-17T05:23:58;20.70;99.90
75113;DHT22;63692;47.338;8.520;2023-08-17T05:41:43;21.10;99.90
75113;DHT22;63692;47.338;8.520;2023-08-17T05:44:09;21.10;99.90
75113;DHT22;63692;47.338;8.520;2023-08-17T05:46:39;21.00;99.90
75113;DHT22;63692;47.338;8.520;2023-08-17T05:49:05;21.10;99.90
75113;DHT22;63692;47.338;8.520;2023-08-17T05:51:31;21.10;99.90
75113;DHT22;63692;47.338;8.520;2023-08-17T05:53:56;21.10;99.90
75113;DHT22;63692;47.338;8.520;2023-08-17T05:56:22;21.20;99.90
75113;DHT22;63692;47.338;8.520;2023-08-17T05:58:48;21.20;99.90
75113;DHT22;63692;47.338;8.520;2023-08-17T06:01:13;21.30;99.90
75113;DHT22;63692;47.338;8.520;2023-08-17T06:03:39;21.40;99.90
75113;DHT22;63692;47.338;8.520;2023-08-17T06:06:05;21.40;99.90
75113;DHT22;63692;47.338;8.520;2023-08-17T06:08:31;21.40;99.90
75113;DHT22;63692;47.338;8.520;2023-08-17T06:10:56;21.40;99.90
75113;DHT22;63692;47.338;8.520;2023-08-17T06:13:22;21.40;99.90
75113;DHT22;63692;47.338;8.520;2023-08-17T06:15:48;21.40;99.90
75113;DHT22;63692;47.338;8.520;2023-08-17T06:18:13;21.40;99.90
75113;DHT22;63692;47.338;8.520;2023-08-17T06:20:39;21.40;99.90
75113;DHT22;63692;47.338;8.520;2023-08-17T06:23:04;21.40;99.90
75113;DHT22;63692;47.338;8.520;2023-08-17T06:25:30;21.40;99.90
75113;DHT22;63692;47.338;8.520;2023-08-17T06:27:56;21.60;99.90
75113;DHT22;63692;47.338;8.520;2023-08-17T06:30:22;21.70;99.90
75113;DHT22;63692;47.338;8.520;2023-08-17T06:32:48;21.80;99.90
75113;DHT22;63692;47.338;8.520;2023-08-17T06:35:13;21.70;99.90
75113;DHT22;63692;47.338;8.520;2023-08-17T06:37:39;21.80;99.90
75113;DHT22;63692;47.338;8.520;2023-08-17T06:40:05;21.80;99.90
75113;DHT22;63692;47.338;8.520;2023-08-17T06:42:31;21.90;99.90
75113;DHT22;63692;47.338;8.520;2023-08-17T06:44:57;21.90;99.90
75113;DHT22;63692;47.338;8.520;2023-08-17T06:47:23;21.90;99.90
75113;DHT22;63692;47.338;8.520;2023-08-17T06:49:48;21.90;99.90
75113;DHT22;63692;47.338;8.520;2023-08-17T06:52:14;22.00;99.90
75113;DHT22;63692;47.338;8.520;2023-08-17T06:54:40;22.00;99.90
75113;DHT22;63692;47.338;8.520;2023-08-17T06:57:05;22.00;99.90
75113;DHT22;63692;47.338;8.520;2023-08-17T06:59:31;22.10;99.90
75113;DHT22;63692;47.338;8.520;2023-08-17T07:01:58;22.20;99.90
75113;DHT22;63692;47.338;8.520;2023-08-17T07:04:24;22.30;99.90
75113;DHT22;63692;47.338;8.520;2023-08-17T07:06:50;22.30;99.90
75113;DHT22;63692;47.338;8.520;2023-08-17T07:09:16;22.30;99.90
75113;DHT22;63692;47.338;8.520;2023-08-17T07:11:41;22.30;99.90
75113;DHT22;63692;47.338;8.520;2023-08-17T07:14:07;22.40;99.90
75113;DHT22;63692;47.338;8.520;2023-08-17T07:16:33;22.40;99.90
75113;DHT22;63692;47.338;8.520;2023-08-17T07:18:58;22.40;99.90
75113;DHT22;63692;47.338;8.520;2023-08-17T07:21:24;22.40;99.90
75113;DHT22;63692;47.338;8.520;2023-08-17T07:23:50;22.40;99.90
75113;DHT22;63692;47.338;8.520;2023-08-17T07:26:16;22.40;99.90
75113;DHT22;63692;47.338;8.520;2023-08-17T07:28:44;22.60;99.90
75113;DHT22;63692;47.338;8.520;2023-08-17T07:31:10;22.60;99.90
75113;DHT22;63692;47.338;8.520;2023-08-17T07:33:36;22.70;99.90
75113;DHT22;63692;47.338;8.520;2023-08-17T07:36:02;22.70;99.90
75113;DHT22;63692;47.338;8.520;2023-08-17T07:38:27;22.70;99.90
75113;DHT22;63692;47.338;8.520;2023-08-17T07:40:54;22.70;99.90
75113;DHT22;63692;47.338;8.520;2023-08-17T07:43:20;22.80;99.90
75113;DHT22;63692;47.338;8.520;2023-08-17T07:45:45;22.80;99.90
75113;DHT22;63692;47.338;8.520;2023-08-17T07:48:11;22.90;99.90
75113;DHT22;63692;47.338;8.520;2023-08-17T07:50:37;22.90;99.90
75113;DHT22;63692;47.338;8.520;2023-08-17T07:53:03;23.00;99.90
75113;DHT22;63692;47.338;8.520;2023-08-17T07:55:28;23.10;99.90
75113;DHT22;63692;47.338;8.520;2023-08-17T07:57:54;23.10;99.90
75113;DHT22;63692;47.338;8.520;2023-08-17T08:00:19;23.20;99.90
75113;DHT22;63692;47.338;8.520;2023-08-17T08:02:46;23.30;99.90
75113;DHT22;63692;47.338;8.520;2023-08-17T08:05:11;23.40;99.90
75113;DHT22;63692;47.338;8.520;2023-08-17T08:07:39;23.40;99.90
75113;DHT22;63692;47.338;8.520;2023-08-17T08:10:05;23.50;99.90
75113;DHT22;63692;47.338;8.520;2023-08-17T08:12:31;23.50;99.90
75113;DHT22;63692;47.338;8.520;2023-08-17T08:14:56;23.50;99.90
75113;DHT22;63692;47.338;8.520;2023-08-17T08:17:22;23.50;99.90
75113;DHT22;63692;47.338;8.520;2023-08-17T08:19:47;23.60;99.90
75113;DHT22;63692;47.338;8.520;2023-08-17T08:22:13;23.60;99.90
75113;DHT22;63692;47.338;8.520;2023-08-17T08:24:38;23.60;99.90
75113;DHT22;63692;47.338;8.520;2023-08-17T08:27:06;23.60;99.90
75113;DHT22;63692;47.338;8.520;2023-08-17T08:29:32;23.60;99.90
75113;DHT22;63692;47.338;8.520;2023-08-17T08:31:57;23.70;99.90
75113;DHT22;63692;47.338;8.520;2023-08-17T08:34:25;23.70;99.90
75113;DHT22;63692;47.338;8.520;2023-08-17T08:36:50;23.80;99.90
75113;DHT22;63692;47.338;8.520;2023-08-17T08:39:16;23.80;99.90
75113;DHT22;63692;47.338;8.520;2023-08-17T08:41:42;23.80;99.90
75113;DHT22;63692;47.338;8.520;2023-08-17T08:44:07;23.80;99.90
75113;DHT22;63692;47.338;8.520;2023-08-17T08:46:33;23.90;99.90
75113;DHT22;63692;47.338;8.520;2023-08-17T08:49:00;23.90;99.90
75113;DHT22;63692;47.338;8.520;2023-08-17T08:51:28;24.00;99.90
75113;DHT22;63692;47.338;8.520;2023-08-17T08:54:01;24.10;99.90
75113;DHT22;63692;47.338;8.520;2023-08-17T08:56:35;24.10;99.90
75113;DHT22;63692;47.338;8.520;2023-08-17T08:59:04;24.10;99.90
75113;DHT22;63692;47.338;8.520;2023-08-17T09:01:34;24.10;99.90
75113;DHT22;63692;47.338;8.520;2023-08-17T09:04:00;24.20;99.90
75113;DHT22;63692;47.338;8.520;2023-08-17T09:06:32;24.20;99.90
75113;DHT22;63692;47.338;8.520;2023-08-17T09:08:58;24.30;99.90
75113;DHT22;63692;47.338;8.520;2023-08-17T09:11:25;24.30;99.90
75113;DHT22;63692;47.338;8.520;2023-08-17T09:13:52;24.30;99.90
75113;DHT22;63692;47.338;8.520;2023-08-17T09:16:18;24.40;99.90
75113;DHT22;63692;47.338;8.520;2023-08-17T09:18:43;24.30;99.90
75113;DHT22;63692;47.338;8.520;2023-08-17T09:21:23;24.40;99.90
75113;DHT22;63692;47.338;8.520;2023-08-17T09:23:55;24.60;99.90
75113;DHT22;63692;47.338;8.520;2023-08-17T09:26:22;24.60;99.90
75113;DHT22;63692;47.338;8.520;2023-08-17T09:28:51;24.70;99.90
75113;DHT22;63692;47.338;8.520;2023-08-17T09:31:20;24.90;99.90
75113;DHT22;63692;47.338;8.520;2023-08-17T09:33:51;24.90;99.90
75113;DHT22;63692;47.338;8.520;2023-08-17T09:36:21;25.10;99.90
75113;DHT22;63692;47.338;8.520;2023-08-17T09:38:48;25.20;99.90
75113;DHT22;63692;47.338;8.520;2023-08-17T09:41:15;25.20;99.90
75113;DHT22;63692;47.338;8.520;2023-08-17T09:43:41;25.30;99.90
75113;DHT22;63692;47.338;8.520;2023-08-17T09:46:06;25.30;99.90
75113;DHT22;63692;47.338;8.520;2023-08-17T09:48:33;25.40;99.90
75113;DHT22;63692;47.338;8.520;2023-08-17T09:50:58;25.50;99.90
75113;DHT22;63692;47.338;8.520;2023-08-17T09:53:24;25.50;99.90
75113;DHT22;63692;47.338;8.520;2023-08-17T09:55:51;25.50;99.90
75113;DHT22;63692;47.338;8.520;2023-08-17T09:58:18;25.50;99.90
75113;DHT22;63692;47.338;8.520;2023-08-17T10:00:45;25.50;99.90
75113;DHT22;63692;47.338;8.520;2023-08-17T10:03:13;25.60;99.90
75113;DHT22;63692;47.338;8.520;2023-08-17T10:05:40;25.70;99.90
75113;DHT22;63692;47.338;8.520;2023-08-17T10:08:12;25.70;99.90
75113;DHT22;63692;47.338;8.520;2023-08-17T10:10:42;25.70;99.90
75113;DHT22;63692;47.338;8.520;2023-08-17T10:16:11;25.90;99.90
75113;DHT22;63692;47.338;8.520;2023-08-17T10:19:01;25.90;99.90
75113;DHT22;63692;47.338;8.520;2023-08-17T10:21:37;26.00;99.90
75113;DHT22;63692;47.338;8.520;2023-08-17T10:24:05;26.00;99.90
75113;DHT22;63692;47.338;8.520;2023-08-17T10:26:31;26.00;99.90
75113;DHT22;63692;47.338;8.520;2023-08-17T10:28:59;26.00;99.90
75113;DHT22;63692;47.338;8.520;2023-08-17T10:31:27;26.10;99.90
75113;DHT22;63692;47.338;8.520;2023-08-17T10:33:53;26.00;99.90
75113;DHT22;63692;47.338;8.520;2023-08-17T10:36:19;26.10;99.90
75113;DHT22;63692;47.338;8.520;2023-08-17T10:38:46;26.00;99.90
75113;DHT22;63692;47.338;8.520;2023-08-17T10:41:13;26.00;99.90
75113;DHT22;63692;47.338;8.520;2023-08-17T10:43:56;26.00;99.90
75113;DHT22;63692;47.338;8.520;2023-08-17T10:46:32;26.10;99.90
75113;DHT22;63692;47.338;8.520;2023-08-17T10:49:02;26.10;99.90
75113;DHT22;63692;47.338;8.520;2023-08-17T10:51:29;26.00;99.90
75113;DHT22;63692;47.338;8.520;2023-08-17T10:53:59;26.10;99.90
75113;DHT22;63692;47.338;8.520;2023-08-17T10:56:27;26.20;99.90
75113;DHT22;63692;47.338;8.520;2023-08-17T10:58:54;26.20;99.70
75113;DHT22;63692;47.338;8.520;2023-08-17T11:01:39;26.30;98.10
75113;DHT22;63692;47.338;8.520;2023-08-17T11:04:09;26.30;96.10
75113;DHT22;63692;47.338;8.520;2023-08-17T11:06:36;26.30;96.20
75113;DHT22;63692;47.338;8.520;2023-08-17T11:09:06;26.40;96.60
75113;DHT22;63692;47.338;8.520;2023-08-17T11:11:33;26.40;96.90
75113;DHT22;63692;47.338;8.520;2023-08-17T11:13:58;26.40;94.90
75113;DHT22;63692;47.338;8.520;2023-08-17T11:16:24;26.50;94.00
75113;DHT22;63692;47.338;8.520;2023-08-17T11:18:51;26.50;92.30
75113;DHT22;63692;47.338;8.520;2023-08-17T11:21:17;26.50;93.50
75113;DHT22;63692;47.338;8.520;2023-08-17T11:23:43;26.50;93.90
75113;DHT22;63692;47.338;8.520;2023-08-17T11:26:09;26.50;94.00
75113;DHT22;63692;47.338;8.520;2023-08-17T11:28:35;26.50;94.00
75113;DHT22;63692;47.338;8.520;2023-08-17T11:31:05;26.50;93.00
75113;DHT22;63692;47.338;8.520;2023-08-17T11:33:32;26.50;92.30
75113;DHT22;63692;47.338;8.520;2023-08-17T11:35:59;26.50;92.80
75113;DHT22;63692;47.338;8.520;2023-08-17T11:38:26;26.50;93.20
75113;DHT22;63692;47.338;8.520;2023-08-17T11:40:55;26.60;94.30
75113;DHT22;63692;47.338;8.520;2023-08-17T11:43:21;26.60;93.90
75113;DHT22;63692;47.338;8.520;2023-08-17T11:45:48;26.60;94.10
75113;DHT22;63692;47.338;8.520;2023-08-17T11:48:14;26.60;94.00
75113;DHT22;63692;47.338;8.520;2023-08-17T11:50:43;26.60;94.00
75113;DHT22;63692;47.338;8.520;2023-08-17T11:53:09;26.60;93.70
75113;DHT22;63692;47.338;8.520;2023-08-17T14:38:07;26.00;96.50
75113;DHT22;63692;47.338;8.520;2023-08-17T14:46:03;25.90;97.10
75113;DHT22;63692;47.338;8.520;2023-08-17T14:48:28;25.90;96.00
75113;DHT22;63692;47.338;8.520;2023-08-17T14:50:54;25.80;95.80
75113;DHT22;63692;47.338;8.520;2023-08-17T14:53:20;25.70;96.00
75113;DHT22;63692;47.338;8.520;2023-08-17T14:55:46;25.50;95.90
75113;DHT22;63692;47.338;8.520;2023-08-17T14:58:11;25.40;96.30
75113;DHT22;63692;47.338;8.520;2023-08-17T15:00:37;25.30;96.60
75113;DHT22;63692;47.338;8.520;2023-08-17T15:03:03;25.30;96.60
75113;DHT22;63692;47.338;8.520;2023-08-17T15:05:28;25.20;96.80
75113;DHT22;63692;47.338;8.520;2023-08-17T15:07:54;25.20;96.90
75113;DHT22;63692;47.338;8.520;2023-08-17T15:10:19;25.10;97.10
75113;DHT22;63692;47.338;8.520;2023-08-17T15:12:45;25.10;97.40
75113;DHT22;63692;47.338;8.520;2023-08-17T15:15:11;25.10;97.40
75113;DHT22;63692;47.338;8.520;2023-08-17T15:17:37;25.10;97.50
75113;DHT22;63692;47.338;8.520;2023-08-17T15:20:03;25.00;97.60
75113;DHT22;63692;47.338;8.520;2023-08-17T15:22:28;25.00;97.30
75113;DHT22;63692;47.338;8.520;2023-08-17T15:24:54;25.00;97.60
75113;DHT22;63692;47.338;8.520;2023-08-17T15:27:20;25.00;98.10
75113;DHT22;63692;47.338;8.520;2023-08-17T15:29:45;24.90;98.10
75113;DHT22;63692;47.338;8.520;2023-08-17T15:32:11;24.90;98.30
75113;DHT22;63692;47.338;8.520;2023-08-17T15:34:36;25.10;97.90
75113;DHT22;63692;47.338;8.520;2023-08-17T15:37:02;25.10;97.40
75113;DHT22;63692;47.338;8.520;2023-08-17T15:39:28;25.00;97.30
75113;DHT22;63692;47.338;8.520;2023-08-17T15:41:55;24.90;97.00
75113;DHT22;63692;47.338;8.520;2023-08-17T15:44:20;24.90;97.60
75113;DHT22;63692;47.338;8.520;2023-08-17T15:46:46;24.90;97.40
75113;DHT22;63692;47.338;8.520;2023-08-17T15:49:12;24.80;97.40
75113;DHT22;63692;47.338;8.520;2023-08-17T15:51:38;24.70;97.50
75113;DHT22;63692;47.338;8.520;2023-08-17T15:54:04;24.70;97.80
75113;DHT22;63692;47.338;8.520;2023-08-17T15:56:29;24.60;97.90
75113;DHT22;63692;47.338;8.520;2023-08-17T15:58:55;24.60;97.80
75113;DHT22;63692;47.338;8.520;2023-08-17T16:01:21;24.60;98.50
75113;DHT22;63692;47.338;8.520;2023-08-17T16:03:47;24.60;98.00
75113;DHT22;63692;47.338;8.520;2023-08-17T16:06:13;24.60;98.30
75113;DHT22;63692;47.338;8.520;2023-08-17T16:08:44;24.60;98.00
75113;DHT22;63692;47.338;8.520;2023-08-17T16:11:10;24.60;99.10
75113;DHT22;63692;47.338;8.520;2023-08-17T16:13:35;24.60;99.10
75113;DHT22;63692;47.338;8.520;2023-08-17T16:16:01;24.60;99.20
75113;DHT22;63692;47.338;8.520;2023-08-17T16:18:28;24.60;98.60
75113;DHT22;63692;47.338;8.520;2023-08-17T16:20:53;24.60;99.40
75113;DHT22;63692;47.338;8.520;2023-08-17T16:23:19;24.70;99.50
75113;DHT22;63692;47.338;8.520;2023-08-17T16:25:45;24.70;99.40
75113;DHT22;63692;47.338;8.520;2023-08-17T16:28:11;24.80;97.80
75113;DHT22;63692;47.338;8.520;2023-08-17T16:30:36;24.70;99.00
75113;DHT22;63692;47.338;8.520;2023-08-17T16:33:04;24.70;97.30
75113;DHT22;63692;47.338;8.520;2023-08-17T16:35:30;24.70;96.20
75113;DHT22;63692;47.338;8.520;2023-08-17T16:37:56;24.60;96.40
75113;DHT22;63692;47.338;8.520;2023-08-17T16:40:22;24.60;96.20
75113;DHT22;63692;47.338;8.520;2023-08-17T16:42:48;24.50;96.60
75113;DHT22;63692;47.338;8.520;2023-08-17T16:45:14;24.50;96.70
75113;DHT22;63692;47.338;8.520;2023-08-17T16:47:41;24.50;95.60
75113;DHT22;63692;47.338;8.520;2023-08-17T16:50:07;24.50;95.70
75113;DHT22;63692;47.338;8.520;2023-08-17T16:52:32;24.50;95.90
75113;DHT22;63692;47.338;8.520;2023-08-17T16:54:58;24.40;96.60
75113;DHT22;63692;47.338;8.520;2023-08-17T16:57:23;24.40;96.10
75113;DHT22;63692;47.338;8.520;2023-08-17T16:59:49;24.40;95.00
75113;DHT22;63692;47.338;8.520;2023-08-17T17:02:15;24.40;95.20
75113;DHT22;63692;47.338;8.520;2023-08-17T17:04:42;24.40;95.40
75113;DHT22;63692;47.338;8.520;2023-08-17T17:07:08;24.40;94.60
75113;DHT22;63692;47.338;8.520;2023-08-17T17:09:33;24.40;95.30
75113;DHT22;63692;47.338;8.520;2023-08-17T17:11:59;24.40;94.60
75113;DHT22;63692;47.338;8.520;2023-08-17T17:14:25;24.40;94.80
75113;DHT22;63692;47.338;8.520;2023-08-17T17:16:50;24.30;94.70
75113;DHT22;63692;47.338;8.520;2023-08-17T17:19:16;24.40;94.70
75113;DHT22;63692;47.338;8.520;2023-08-17T17:21:43;24.40;94.20
75113;DHT22;63692;47.338;8.520;2023-08-17T17:24:09;24.30;94.10
75113;DHT22;63692;47.338;8.520;2023-08-17T17:26:35;24.30;93.90
75113;DHT22;63692;47.338;8.520;2023-08-17T17:29:06;24.30;94.10
75113;DHT22;63692;47.338;8.520;2023-08-17T17:31:35;24.30;93.80
75113;DHT22;63692;47.338;8.520;2023-08-17T17:34:02;24.30;93.70
75113;DHT22;63692;47.338;8.520;2023-08-17T17:36:28;24.20;94.10
75113;DHT22;63692;47.338;8.520;2023-08-17T17:38:54;24.10;94.70
75113;DHT22;63692;47.338;8.520;2023-08-17T17:41:20;24.00;95.60
75113;DHT22;63692;47.338;8.520;2023-08-17T17:43:46;24.00;96.20
75113;DHT22;63692;47.338;8.520;2023-08-17T17:46:12;23.90;96.20
75113;DHT22;63692;47.338;8.520;2023-08-17T17:48:37;23.90;97.30
75113;DHT22;63692;47.338;8.520;2023-08-17T17:51:03;23.80;97.60
75113;DHT22;63692;47.338;8.520;2023-08-17T18:14:11;23.60;96.60
75113;DHT22;63692;47.338;8.520;2023-08-17T18:16:37;23.60;96.90
75113;DHT22;63692;47.338;8.520;2023-08-17T18:19:02;23.50;96.90
75113;DHT22;63692;47.338;8.520;2023-08-17T18:21:28;23.50;97.20
75113;DHT22;63692;47.338;8.520;2023-08-17T18:24:00;23.40;97.20
75113;DHT22;63692;47.338;8.520;2023-08-17T18:26:26;23.40;97.20
75113;DHT22;63692;47.338;8.520;2023-08-17T18:28:52;23.40;97.00
75113;DHT22;63692;47.338;8.520;2023-08-17T18:31:19;23.40;97.80
75113;DHT22;63692;47.338;8.520;2023-08-17T18:33:45;23.30;97.30
75113;DHT22;63692;47.338;8.520;2023-08-17T18:36:10;23.30;97.20
75113;DHT22;63692;47.338;8.520;2023-08-17T18:38:36;23.30;97.70
75113;DHT22;63692;47.338;8.520;2023-08-17T18:41:06;23.20;98.00
75113;DHT22;63692;47.338;8.520;2023-08-17T18:43:36;23.10;98.20
75113;DHT22;63692;47.338;8.520;2023-08-17T18:46:02;23.00;98.40
75113;DHT22;63692;47.338;8.520;2023-08-17T18:48:28;23.00;99.20
75113;DHT22;63692;47.338;8.520;2023-08-17T18:50:54;22.90;98.80
75113;DHT22;63692;47.338;8.520;2023-08-17T18:53:20;22.90;98.50
75113;DHT22;63692;47.338;8.520;2023-08-17T18:55:45;22.80;98.90
75113;DHT22;63692;47.338;8.520;2023-08-17T18:58:11;22.80;99.00
75113;DHT22;63692;47.338;8.520;2023-08-17T19:00:37;22.70;99.10
75113;DHT22;63692;47.338;8.520;2023-08-17T19:03:03;22.70;98.80
75113;DHT22;63692;47.338;8.520;2023-08-17T19:05:29;22.70;98.70
75113;DHT22;63692;47.338;8.520;2023-08-17T19:07:57;22.70;98.90
